Time;durP1;ratioP1;P1;durP2;ratioP2;P2;SDS_P1;SDS_P2;PMS_P1;PMS_P2;Temp;Humidity;BMP_temperature;BMP_pressure;BME280_temperature;BME280_humidity;BME280_pressure;Samples;Min_cycle;Max_cycle;Signal;HPM_P1;HPM_P2
2023/10/24 00:00:38;;;;;;;442.23;181.43;;;;;;;;;;4961155;28;20323;-55
2023/10/24 00:03:04;;;;;;;411.67;159.37;;;;;;;;;;4966471;28;20693;-55
2023/10/24 00:05:30;;;;;;;436.67;173.20;;;;;;;;;;4966361;28;20186;-55
2023/10/24 00:07:56;;;;;;;460.37;183.37;;;9.20;99.90;;;;;;4961835;28;20527;-56
2023/10/24 00:10:22;;;;;;;502.60;213.43;;;9.20;99.90;;;;;;4957168;28;22285;-55
2023/10/24 00:12:48;;;;;;;510.50;214.53;;;;;;;;;;4959091;28;20251;-55
2023/10/24 00:15:14;;;;;;;499.30;216.63;;;;;;;;;;4961483;28;20189;-56
2023/10/24 00:17:40;;;;;;;454.53;189.27;;;;;;;;;;4965085;28;20205;-55
2023/10/24 00:20:07;;;;;;;452.80;187.03;;;9.40;99.90;;;;;;4969669;28;20574;-55
2023/10/24 00:22:32;;;;;;;468.23;191.83;;;;;;;;;;4963803;28;20217;-55
2023/10/24 00:24:58;;;;;;;478.67;194.70;;;;;;;;;;4960544;28;20517;-55
2023/10/24 00:27:24;;;;;;;534.37;232.83;;;;;;;;;;4958581;28;20225;-55
2023/10/24 00:29:50;;;;;;;485.77;199.20;;;;;;;;;;4964811;28;20271;-54
2023/10/24 00:32:16;;;;;;;444.40;179.43;;;;;;;;;;4957991;28;20286;-55
2023/10/24 00:34:42;;;;;;;444.23;181.60;;;;;;;;;;4963576;28;20209;-55
2023/10/24 00:37:08;;;;;;;430.10;174.07;;;;;;;;;;4963086;28;20885;-55
2023/10/24 00:39:34;;;;;;;465.67;189.77;;;;;;;;;;4957991;28;20229;-55
2023/10/24 00:42:01;;;;;;;452.20;180.37;;;;;;;;;;4967200;28;20292;-55
2023/10/24 00:44:27;;;;;;;479.23;194.47;;;;;;;;;;4955066;28;20206;-56
2023/10/24 00:46:54;;;;;;;526.13;225.83;;;;;;;;;;4956808;28;20221;-55
2023/10/24 00:49:19;;;;;;;440.10;178.43;;;9.70;99.90;;;;;;4967427;28;20723;-55
2023/10/24 00:51:45;;;;;;;524.93;234.07;;;;;;;;;;4959223;28;20308;-55
2023/10/24 00:54:12;;;;;;;437.50;171.17;;;;;;;;;;4964866;28;20225;-55
2023/10/24 00:56:39;;;;;;;452.00;184.80;;;;;;;;;;4964003;28;20186;-55
2023/10/24 00:59:05;;;;;;;475.17;194.17;;;;;;;;;;4961995;28;20218;-55
2023/10/24 01:01:31;;;;;;;496.13;203.17;;;;;;;;;;4954979;28;21655;-55
2023/10/24 01:03:58;;;;;;;516.07;210.93;;;;;;;;;;4954503;28;20239;-55
2023/10/24 01:06:24;;;;;;;495.77;205.70;;;;;;;;;;4961187;28;20228;-55
2023/10/24 01:08:50;;;;;;;488.03;200.53;;;;;;;;;;4955882;28;20182;-55
2023/10/24 01:11:16;;;;;;;457.47;184.77;;;;;;;;;;4961990;28;20212;-55
2023/10/24 01:13:43;;;;;;;495.27;205.60;;;;;;;;;;4951741;28;20222;-55
2023/10/24 01:16:09;;;;;;;443.27;175.73;;;;;;;;;;4961058;28;20236;-55
2023/10/24 01:18:35;;;;;;;466.67;186.77;;;;;;;;;;4961292;28;20218;-55
2023/10/24 01:21:01;;;;;;;478.13;190.73;;;;;;;;;;4964583;28;20182;-56
2023/10/24 01:23:31;;;;;;;453.50;176.80;;;9.80;99.90;;;;;;4956612;28;20282;-55
2023/10/24 01:25:58;;;;;;;469.83;193.30;;;;;;;;;;4963793;28;20705;-55
2023/10/24 01:28:24;;;;;;;488.53;203.63;;;;;;;;;;4960817;28;20738;-56
2023/10/24 01:30:50;;;;;;;450.13;189.03;;;;;;;;;;4960070;28;20225;-55
2023/10/24 01:33:16;;;;;;;423.50;171.43;;;;;;;;;;4959790;28;20186;-55
2023/10/24 01:35:42;;;;;;;461.17;184.20;;;;;;;;;;4963213;28;20205;-55
2023/10/24 01:38:08;;;;;;;426.10;169.77;;;;;;;;;;4966009;28;20417;-56
2023/10/24 01:40:34;;;;;;;481.87;197.23;;;;;;;;;;4957355;28;20484;-55
2023/10/24 01:43:00;;;;;;;469.27;192.27;;;;;;;;;;4964944;28;20221;-55
2023/10/24 01:45:26;;;;;;;454.33;187.37;;;;;;;;;;4956458;28;20218;-56
2023/10/24 01:47:52;;;;;;;502.63;214.70;;;;;;;;;;4957797;28;20612;-55
2023/10/24 01:50:18;;;;;;;483.30;192.97;;;;;;;;;;4963884;28;20213;-56
2023/10/24 01:52:44;;;;;;;463.03;190.73;;;;;;;;;;4960680;28;20595;-55
2023/10/24 01:55:10;;;;;;;460.10;182.60;;;;;;;;;;4967522;28;20225;-56
2023/10/24 01:57:36;;;;;;;538.97;231.07;;;;;;;;;;4956505;28;20687;-55
2023/10/24 02:00:03;;;;;;;453.87;181.30;;;9.60;99.90;;;;;;4955706;28;20725;-55
2023/10/24 02:02:29;;;;;;;458.90;183.60;;;;;;;;;;4959867;28;20598;-55
2023/10/24 02:04:55;;;;;;;509.30;218.13;;;;;;;;;;4959504;28;20223;-55
2023/10/24 02:07:23;;;;;;;462.93;190.60;;;;;;;;;;4957240;28;20596;-56
2023/10/24 02:09:49;;;;;;;461.37;192.80;;;;;;;;;;4954853;28;20222;-55
2023/10/24 02:12:15;;;;;;;428.90;171.03;;;;;;;;;;4965719;28;20660;-56
2023/10/24 02:14:41;;;;;;;482.27;198.30;;;;;;;;;;4959668;28;20180;-56
2023/10/24 02:17:07;;;;;;;449.63;181.23;;;;;;;;;;4964044;28;20308;-56
2023/10/24 02:19:33;;;;;;;466.83;189.13;;;;;;;;;;4961578;28;20313;-56
2023/10/24 02:21:59;;;;;;;504.23;221.00;;;;;;;;;;4953234;28;20599;-55
2023/10/24 02:24:25;;;;;;;442.53;177.60;;;;;;;;;;4964426;28;20214;-55
2023/10/24 02:26:51;;;;;;;444.63;181.90;;;;;;;;;;4964365;28;20201;-55
2023/10/24 02:29:17;;;;;;;443.80;182.90;;;;;;;;;;4961993;28;20549;-55
2023/10/24 02:31:43;;;;;;;460.17;186.63;;;;;;;;;;4959375;28;20232;-55
2023/10/24 02:34:09;;;;;;;440.60;175.73;;;;;;;;;;4960336;28;22070;-55
2023/10/24 02:36:35;;;;;;;444.33;173.03;;;;;;;;;;4962117;28;20310;-55
2023/10/24 02:39:00;;;;;;;463.27;194.70;;;9.60;99.90;;;;;;4969204;28;20197;-55
2023/10/24 02:41:26;;;;;;;493.33;208.20;;;;;;;;;;4966617;28;20186;-55
2023/10/24 02:43:52;;;;;;;462.20;191.50;;;;;;;;;;4962874;28;20214;-55
2023/10/24 02:46:18;;;;;;;482.43;200.17;;;;;;;;;;4962842;28;20228;-55
2023/10/24 02:48:44;;;;;;;433.30;172.77;;;;;;;;;;4963784;28;20572;-55
2023/10/24 02:51:10;;;;;;;529.07;237.47;;;;;;;;;;4966121;28;20748;-55
2023/10/24 02:53:36;;;;;;;433.43;172.13;;;;;;;;;;4958526;28;20264;-55
2023/10/24 02:56:05;;;;;;;505.37;214.67;;;9.70;99.90;;;;;;4965168;28;20240;-55
2023/10/24 02:58:31;;;;;;;467.47;187.10;;;;;;;;;;4961512;28;20233;-55
2023/10/24 03:01:02;;;;;;;498.70;207.03;;;;;;;;;;4958216;28;20213;-55
2023/10/24 03:03:27;;;;;;;414.97;164.97;;;;;;;;;;4968182;28;20233;-55
2023/10/24 03:05:53;;;;;;;471.27;198.77;;;;;;;;;;4966776;28;20603;-55
2023/10/24 03:08:20;;;;;;;427.30;171.33;;;;;;;;;;4971724;28;20306;-55
2023/10/24 03:10:46;;;;;;;460.60;195.70;;;;;;;;;;4963552;28;20583;-55
2023/10/24 03:13:12;;;;;;;453.70;194.20;;;;;;;;;;4956686;28;20693;-55
2023/10/24 03:15:39;;;;;;;491.73;201.57;;;;;;;;;;4964052;28;20217;-55
2023/10/24 03:18:05;;;;;;;488.20;206.97;;;;;;;;;;4963894;28;20186;-55
2023/10/24 03:20:31;;;;;;;442.60;179.43;;;;;;;;;;4971445;28;20296;-55
2023/10/24 03:22:57;;;;;;;516.43;214.83;;;;;;;;;;4962044;28;20996;-55
2023/10/24 03:25:26;;;;;;;440.17;175.20;;;9.80;99.90;;;;;;4963955;28;20316;-55
2023/10/24 03:27:55;;;;;;;451.70;181.70;;;;;;;;;;4959725;28;20229;-55
2023/10/24 03:30:22;;;;;;;477.47;197.30;;;;;;;;;;4960306;28;20232;-55
2023/10/24 03:32:47;;;;;;;479.77;195.10;;;9.80;99.90;;;;;;4963496;28;20186;-55
2023/10/24 03:35:14;;;;;;;452.50;182.97;;;;;;;;;;4962396;28;20221;-55
2023/10/24 03:37:40;;;;;;;442.43;176.33;;;;;;;;;;4965945;28;20611;-55
2023/10/24 03:40:08;;;;;;;469.60;190.87;;;;;;;;;;4965077;28;20252;-55
2023/10/24 03:42:33;;;;;;;504.67;213.30;;;;;;;;;;4960420;28;20214;-55
2023/10/24 03:44:59;;;;;;;475.10;208.80;;;;;;;;;;4966881;28;20193;-55
2023/10/24 03:47:25;;;;;;;467.43;194.20;;;;;;;;;;4962752;28;20703;-55
2023/10/24 03:49:51;;;;;;;450.57;186.23;;;;;;;;;;4968143;28;20224;-55
2023/10/24 03:52:18;;;;;;;449.73;184.83;;;;;;;;;;4960017;28;20222;-55
2023/10/24 03:54:44;;;;;;;420.80;167.07;;;;;;;;;;4965370;28;20703;-55
2023/10/24 03:57:10;;;;;;;464.93;200.00;;;;;;;;;;4963189;28;20190;-55
2023/10/24 03:59:36;;;;;;;496.50;221.07;;;;;;;;;;4955272;28;20210;-55
2023/10/24 04:02:03;;;;;;;461.70;232.20;;;;;;;;;;4965456;28;20312;-55
2023/10/24 04:04:30;;;;;;;424.47;170.67;;;;;;;;;;4970583;28;20924;-55
2023/10/24 04:06:56;;;;;;;469.10;195.53;;;;;;;;;;4963846;28;20235;-55
2023/10/24 04:09:22;;;;;;;502.50;211.50;;;;;;;;;;4966941;28;20225;-55
2023/10/24 04:11:48;;;;;;;475.27;195.50;;;;;;;;;;4962085;28;20192;-55
2023/10/24 04:14:13;;;;;;;429.03;176.00;;;;;;;;;;4959676;28;20263;-55
2023/10/24 04:16:39;;;;;;;426.03;204.77;;;;;;;;;;4960863;28;20221;-55
2023/10/24 04:19:05;;;;;;;537.63;235.17;;;;;;;;;;4958014;28;20228;-55
2023/10/24 04:21:31;;;;;;;429.83;173.73;;;;;;;;;;4964100;28;20232;-55
2023/10/24 04:23:58;;;;;;;463.37;190.13;;;;;;;;;;4965002;28;20194;-55
2023/10/24 04:26:24;;;;;;;497.17;230.43;;;;;;;;;;4966296;28;20214;-55
2023/10/24 04:28:50;;;;;;;504.20;209.53;;;;;;;;;;4960917;28;20573;-56
2023/10/24 04:31:16;;;;;;;462.10;188.50;;;;;;;;;;4958292;28;20205;-55
2023/10/24 04:33:42;;;;;;;457.57;184.57;;;;;;;;;;4960850;28;20324;-55
2023/10/24 04:36:11;;;;;;;467.00;198.80;;;10.30;99.90;;;;;;4963584;28;20254;-55
2023/10/24 04:38:37;;;;;;;495.27;211.97;;;;;;;;;;4966556;28;20194;-55
2023/10/24 04:41:03;;;;;;;507.50;218.53;;;;;;;;;;4964319;28;20695;-55
2023/10/24 04:43:29;;;;;;;442.43;175.97;;;;;;;;;;4966060;28;20283;-55
2023/10/24 04:45:54;;;;;;;487.20;204.73;;;10.30;99.90;;;;;;4966430;28;20308;-55
2023/10/24 04:48:20;;;;;;;465.93;191.63;;;;;;;;;;4957149;28;25311;-55
2023/10/24 04:50:46;;;;;;;459.83;190.70;;;;;;;;;;4959209;28;20231;-55
2023/10/24 04:53:12;;;;;;;435.00;178.43;;;;;;;;;;4963357;28;20224;-55
2023/10/24 04:55:38;;;;;;;441.83;174.63;;;;;;;;;;4966168;28;20229;-55
2023/10/24 04:58:05;;;;;;;464.20;195.30;;;;;;;;;;4966323;28;20542;-55
2023/10/24 05:00:31;;;;;;;443.37;172.23;;;;;;;;;;4960226;28;20236;-55
2023/10/24 05:02:57;;;;;;;456.23;177.67;;;;;;;;;;4970143;28;20248;-55
2023/10/24 05:05:23;;;;;;;447.60;174.77;;;;;;;;;;4970509;28;20240;-55
2023/10/24 05:07:49;;;;;;;493.77;207.63;;;;;;;;;;4949693;28;20324;-55
2023/10/24 05:10:15;;;;;;;501.17;207.33;;;;;;;;;;4971386;28;20216;-55
2023/10/24 05:12:41;;;;;;;450.27;181.73;;;;;;;;;;4957712;28;20225;-55
2023/10/24 05:15:07;;;;;;;547.80;239.87;;;;;;;;;;4959269;28;20179;-55
2023/10/24 05:17:33;;;;;;;439.27;177.63;;;;;;;;;;4972037;28;20505;-55
2023/10/24 05:20:02;;;;;;;488.67;201.37;;;;;;;;;;4961522;28;20214;-55
2023/10/24 05:22:28;;;;;;;481.83;189.73;;;;;;;;;;4961080;28;20225;-55
2023/10/24 05:24:54;;;;;;;499.27;202.47;;;;;;;;;;4962785;28;20224;-55
2023/10/24 05:27:20;;;;;;;508.87;210.87;;;;;;;;;;4951254;28;20217;-55
2023/10/24 05:29:46;;;;;;;667.73;317.37;;;;;;;;;;4921849;28;20608;-55
2023/10/24 05:32:12;;;;;;;503.83;215.83;;;;;;;;;;4946518;28;20206;-56
2023/10/24 05:34:38;;;;;;;584.13;262.10;;;;;;;;;;4942986;28;20232;-56
2023/10/24 05:37:04;;;;;;;514.33;220.87;;;;;;;;;;4953279;28;20225;-55
2023/10/24 05:39:31;;;;;;;534.03;226.97;;;;;;;;;;4955649;28;20442;-55
2023/10/24 05:41:57;;;;;;;481.80;199.77;;;;;;;;;;4952609;28;20190;-55
2023/10/24 05:44:23;;;;;;;486.33;198.20;;;;;;;;;;4957145;28;20727;-55
2023/10/24 05:46:50;;;;;;;486.47;209.27;;;;;;;;;;4944890;28;20224;-56
2023/10/24 05:49:16;;;;;;;501.63;214.60;;;;;;;;;;4960327;28;20217;-56
2023/10/24 05:51:42;;;;;;;442.73;181.63;;;;;;;;;;4972729;28;20707;-56
2023/10/24 05:54:08;;;;;;;449.00;186.20;;;;;;;;;;4970613;28;20189;-59
2023/10/24 05:56:33;;;;;;;431.23;169.17;;;;;;;;;;4971920;28;20646;-58
2023/10/24 05:58:59;;;;;;;428.60;171.10;;;;;;;;;;4966447;28;20220;-60
2023/10/24 06:01:25;;;;;;;486.00;200.43;;;;;;;;;;4960712;28;20568;-60
2023/10/24 06:03:51;;;;;;;416.13;162.00;;;;;;;;;;4967569;28;20212;-59
2023/10/24 06:06:17;;;;;;;451.13;181.37;;;;;;;;;;4966947;28;20541;-61
2023/10/24 06:08:46;;;;;;;431.60;169.77;;;;;;;;;;4971830;28;20549;-56
2023/10/24 06:11:15;;;;;;;514.37;222.23;;;;;;;;;;4952364;28;20221;-56
2023/10/24 06:13:41;;;;;;;409.53;166.60;;;;;;;;;;4942692;28;20236;-56
2023/10/24 06:16:14;;;;;;;483.30;194.27;;;;;;;;;;4962442;28;20217;-56
2023/10/24 06:18:40;;;;;;;469.47;180.83;;;;;;;;;;4974797;28;20233;-56
2023/10/24 06:21:06;;;;;;;493.07;198.40;;;;;;;;;;4967329;28;20181;-56
2023/10/24 06:23:33;;;;;;;489.23;203.20;;;;;;;;;;4970831;28;20202;-54
2023/10/24 06:25:59;;;;;;;428.70;169.23;;;;;;;;;;4976713;28;20222;-54
2023/10/24 06:28:25;;;;;;;440.53;175.93;;;;;;;;;;4972231;28;20648;-54
2023/10/24 06:31:00;;;;;;;461.10;182.73;;;11.10;99.90;;;;;;4970284;28;20309;-56
2023/10/24 06:33:32;;;;;;;456.53;181.63;;;;;;;;;;4972013;28;20759;-56
2023/10/24 06:36:00;;;;;;;460.27;183.27;;;;;;;;;;4971606;28;20842;-55
2023/10/24 06:38:26;;;;;;;488.70;194.87;;;;;;;;;;4966673;28;21919;-55
2023/10/24 06:40:52;;;;;;;543.70;228.10;;;;;;;;;;4961083;28;20632;-55
2023/10/24 06:43:19;;;;;;;530.07;223.67;;;;;;;;;;4956377;28;20693;-55
2023/10/24 06:45:48;;;;;;;466.00;188.63;;;;;;;;;;4971227;28;20213;-55
2023/10/24 06:48:15;;;;;;;520.97;214.30;;;;;;;;;;4975873;28;20565;-55
2023/10/24 06:50:41;;;;;;;458.13;183.07;;;;;;;;;;4972895;28;20209;-55
2023/10/24 06:53:10;;;;;;;458.37;176.83;;;;;;;;;;4951845;28;20277;-55
2023/10/24 06:55:37;;;;;;;446.60;174.67;;;;;;;;;;4966558;28;20221;-56
2023/10/24 06:58:06;;;;;;;509.47;209.20;;;;;;;;;;4947457;28;20209;-55
2023/10/24 07:00:32;;;;;;;547.87;235.93;;;;;;;;;;4949560;28;20213;-56
2023/10/24 07:02:58;;;;;;;448.90;177.87;;;;;;;;;;4966061;28;20982;-55
2023/10/24 07:05:24;;;;;;;527.97;224.57;;;;;;;;;;4954186;28;20221;-56
2023/10/24 07:07:50;;;;;;;585.90;257.70;;;;;;;;;;4939274;28;20221;-56
2023/10/24 07:10:16;;;;;;;523.57;222.17;;;;;;;;;;4953753;28;20225;-56
2023/10/24 07:12:42;;;;;;;449.13;175.23;;;;;;;;;;4959181;28;20505;-56
2023/10/24 07:15:09;;;;;;;647.57;298.73;;;;;;;;;;4950848;28;21205;-55
2023/10/24 07:17:35;;;;;;;491.20;198.60;;;;;;;;;;4957986;28;20207;-55
2023/10/24 07:20:01;;;;;;;496.87;202.43;;;;;;;;;;4936135;28;20217;-56
2023/10/24 07:22:28;;;;;;;537.77;225.40;;;;;;;;;;4948519;28;20225;-56
2023/10/24 07:24:54;;;;;;;445.60;173.53;;;;;;;;;;4958978;28;20333;-56
2023/10/24 07:27:20;;;;;;;550.40;232.40;;;;;;;;;;4961881;28;20639;-56
2023/10/24 07:29:46;;;;;;;485.13;194.87;;;;;;;;;;4960426;28;20338;-56
2023/10/24 07:32:12;;;;;;;497.43;205.27;;;;;;;;;;4952644;28;20386;-56
2023/10/24 07:34:41;;;;;;;490.77;200.30;;;;;;;;;;4960655;28;20217;-56
2023/10/24 07:37:07;;;;;;;484.57;204.60;;;;;;;;;;4952707;28;20232;-56
2023/10/24 07:39:33;;;;;;;492.03;204.10;;;;;;;;;;4962553;28;20611;-55
2023/10/24 07:41:59;;;;;;;471.33;191.07;;;;;;;;;;4965044;28;20205;-55
2023/10/24 07:44:25;;;;;;;491.57;199.63;;;;;;;;;;4954708;28;20307;-55
2023/10/24 07:46:52;;;;;;;557.23;236.50;;;;;;;;;;4946318;28;25539;-55
2023/10/24 07:49:17;;;;;;;542.30;232.70;;;;;;;;;;4960783;28;20531;-55
2023/10/24 07:51:44;;;;;;;512.07;216.00;;;;;;;;;;4955420;28;20232;-55
2023/10/24 07:54:11;;;;;;;502.13;207.33;;;11.60;99.90;;;;;;4961464;28;20196;-55
2023/10/24 07:56:37;;;;;;;465.97;183.53;;;;;;;;;;4958432;28;20208;-55
2023/10/24 07:59:04;;;;;;;463.70;183.47;;;;;;;;;;4969495;28;20740;-55
2023/10/24 08:05:04;;;;;;;502.60;222.40;;;;;;;;;;5073232;27;20576;-51
2023/10/24 08:07:30;;;;;;;560.37;249.70;;;;;;;;;;5075815;28;20687;-51
2023/10/24 08:09:56;;;;;;;430.27;174.60;;;;;;;;;;5082125;28;20218;-51
2023/10/24 08:12:21;;;;;;;520.40;232.83;;;;;;;;;;5076380;27;20213;-51
2023/10/24 08:14:49;;;;;;;485.97;206.90;;;;;;;;;;5066762;28;20237;-50
2023/10/24 08:17:15;;;;;;;502.20;211.30;;;;;;;;;;5071336;28;20223;-51
2023/10/24 08:19:41;;;;;;;527.97;223.70;;;;;;;;;;5068860;28;20225;-54
2023/10/24 08:22:07;;;;;;;518.30;220.03;;;;;;;;;;5075459;28;23328;-51
2023/10/24 08:24:33;;;;;;;528.03;226.97;;;;;;;;;;5072175;28;20266;-51
2023/10/24 08:26:59;;;;;;;473.27;194.30;;;;;;;;;;5081356;28;20280;-51
2023/10/24 08:29:25;;;;;;;509.97;213.80;;;;;;;;;;5084075;28;20229;-51
2023/10/24 08:31:51;;;;;;;464.17;190.07;;;;;;;;;;5084878;27;20667;-51
2023/10/24 08:34:17;;;;;;;488.07;200.60;;;;;;;;;;5082917;27;20221;-51
2023/10/24 08:36:43;;;;;;;490.17;200.67;;;;;;;;;;5081685;27;20610;-51
2023/10/24 08:39:09;;;;;;;524.53;222.67;;;;;;;;;;5078047;28;20232;-51
2023/10/24 08:41:35;;;;;;;489.87;200.83;;;;;;;;;;5046764;28;20190;-51
2023/10/24 08:44:02;;;;;;;530.23;228.57;;;12.20;99.90;;;;;;5052497;28;20279;-51
2023/10/24 08:46:28;;;;;;;540.70;236.20;;;;;;;;;;5061415;28;23712;-51
2023/10/24 08:48:54;;;;;;;531.33;228.27;;;;;;;;;;5076206;28;20225;-51
2023/10/24 08:51:20;;;;;;;527.80;226.33;;;;;;;;;;5053376;27;20292;-51
2023/10/24 08:53:46;;;;;;;469.07;191.37;;;;;;;;;;5066939;28;20246;-51
2023/10/24 08:56:12;;;;;;;455.60;182.53;;;12.30;99.90;;;;;;5085180;28;20659;-52
2023/10/24 08:58:38;;;;;;;609.33;283.20;;;;;;;;;;5055031;27;25193;-51
2023/10/24 09:01:05;;;;;;;473.73;195.07;;;;;;;;;;5069815;28;23277;-52
2023/10/24 09:03:31;;;;;;;544.37;234.60;;;;;;;;;;5095273;28;20275;-52
2023/10/24 09:05:58;;;;;;;554.87;242.77;;;;;;;;;;5074696;28;20215;-51
2023/10/24 09:08:25;;;;;;;522.03;228.23;;;;;;;;;;5072734;27;20214;-51
2023/10/24 09:10:51;;;;;;;566.47;254.77;;;;;;;;;;5055810;28;20210;-51
2023/10/24 09:13:18;;;;;;;501.53;207.57;;;;;;;;;;5073893;28;20481;-52
2023/10/24 09:15:44;;;;;;;493.37;205.10;;;;;;;;;;5051660;28;20211;-51
2023/10/24 09:18:10;;;;;;;486.80;201.17;;;;;;;;;;5039718;28;20180;-51
2023/10/24 09:20:36;;;;;;;492.80;203.60;;;;;;;;;;5035296;28;20218;-52
2023/10/24 09:23:04;;;;;;;502.57;211.30;;;;;;;;;;5035161;28;20219;-52
2023/10/24 09:25:31;;;;;;;520.53;225.97;;;;;;;;;;5040345;28;20899;-51
2023/10/24 09:28:14;;;;;;;513.07;217.60;;;;;;;;;;5037396;28;20237;-52
2023/10/24 09:30:40;;;;;;;519.27;227.93;;;;;;;;;;5025244;28;25929;-52
2023/10/24 09:33:06;;;;;;;505.33;215.40;;;;;;;;;;5045558;28;20533;-52
2023/10/24 09:35:32;;;;;;;507.63;218.47;;;;;;;;;;5051536;28;20506;-51
2023/10/24 09:37:59;;;;;;;469.13;195.07;;;13.00;99.90;;;;;;5041155;28;20272;-52
2023/10/24 09:40:33;;;;;;;552.80;251.40;;;;;;;;;;5030926;28;20218;-52
2023/10/24 09:43:00;;;;;;;527.07;227.70;;;;;;;;;;5036842;28;20223;-52
2023/10/24 09:45:26;;;;;;;531.13;232.87;;;;;;;;;;5033130;28;20242;-53
2023/10/24 09:47:52;;;;;;;437.97;179.33;;;;;;;;;;5044868;28;20186;-51
2023/10/24 09:50:19;;;;;;;504.20;222.07;;;;;;;;;;5040890;28;20504;-52
2023/10/24 09:52:45;;;;;;;513.33;223.63;;;;;;;;;;5035473;28;20246;-52
2023/10/24 09:55:13;;;;;;;515.90;233.67;;;;;;;;;;5041679;28;21048;-52
2023/10/24 09:57:40;;;;;;;505.87;216.03;;;13.80;99.90;;;;;;5027635;28;20229;-52
2023/10/24 10:00:11;;;;;;;528.67;238.93;;;;;;;;;;5033396;28;20477;-52
2023/10/24 10:02:41;;;;;;;529.00;234.17;;;13.90;99.90;;;;;;5023411;28;20316;-52
2023/10/24 10:05:07;;;;;;;524.13;236.87;;;;;;;;;;5041882;28;20209;-51
2023/10/24 10:07:34;;;;;;;475.13;203.27;;;;;;;;;;5040532;28;20241;-52
2023/10/24 10:10:01;;;;;;;497.03;219.60;;;14.00;99.90;;;;;;5028910;28;20230;-51
2023/10/24 10:12:28;;;;;;;619.17;298.70;;;;;;;;;;5025686;28;20219;-52
2023/10/24 10:15:18;;;;;;;612.50;288.90;;;;;;;;;;5021030;28;20617;-52
2023/10/24 10:17:58;;;;;;;494.87;216.47;;;14.30;99.90;;;;;;5056982;28;20222;-52
2023/10/24 10:20:28;;;;;;;526.37;235.17;;;;;;;;;;5037860;28;20484;-52
2023/10/24 10:23:03;;;;;;;477.33;209.17;;;14.60;99.90;;;;;;5034129;28;20309;-53
2023/10/24 10:25:38;;;;;;;482.07;210.67;;;;;;;;;;5035009;28;20218;-52
2023/10/24 10:28:04;;;;;;;424.20;178.53;;;;;;;;;;5034211;28;20724;-52
2023/10/24 10:30:39;;;;;;;523.10;235.90;;;14.60;99.90;;;;;;5029905;28;22350;-53
2023/10/24 10:33:19;;;;;;;491.53;214.47;;;14.70;99.90;;;;;;5032131;28;20292;-52
2023/10/24 10:35:50;;;;;;;476.43;207.43;;;14.70;99.90;;;;;;4995913;28;20190;-52
2023/10/24 10:38:43;;;;;;;492.07;218.63;;;14.60;99.90;;;;;;5041962;28;20755;-52
2023/10/24 10:41:33;;;;;;;493.37;220.57;;;14.60;99.90;;;;;;5052453;28;20267;-53
2023/10/24 10:44:00;;;;;;;506.80;228.30;;;;;;;;;;5036513;28;20218;-53
2023/10/24 10:46:28;;;;;;;441.90;190.60;;;14.50;99.90;;;;;;5035593;28;20258;-53
2023/10/24 10:49:00;;;;;;;467.77;207.50;;;14.40;99.90;;;;;;5031949;28;20230;-53
2023/10/24 10:51:29;;;;;;;525.70;238.43;;;14.50;99.90;;;;;;5030511;28;20225;-52
2023/10/24 10:54:20;;;;;;;530.10;241.10;;;14.60;99.90;;;;;;5039423;28;20303;-52
2023/10/24 10:56:48;;;;;;;461.10;199.63;;;14.60;99.90;;;;;;5032495;28;20337;-53
2023/10/24 10:59:51;;;;;;;660.13;334.33;;;14.70;99.90;;;;;;5035118;28;20640;-52
2023/10/24 11:02:32;;;;;;;498.97;225.73;;;;;;;;;;5029843;28;20225;-52
2023/10/24 11:04:58;;;;;;;521.17;240.93;;;14.80;99.90;;;;;;5056367;28;20218;-53
2023/10/24 11:07:44;;;;;;;436.53;193.73;;;;;;;;;;5088885;28;20612;-52
2023/10/24 11:10:13;;;;;;;423.73;186.70;;;;;;;;;;5070569;28;20257;-52
2023/10/24 11:12:47;;;;;;;431.63;190.40;;;;;;;;;;5066656;28;20206;-52
2023/10/24 11:15:22;;;;;;;446.63;193.90;;;;;;;;;;5063870;28;20356;-52
2023/10/24 11:17:47;;;;;;;422.00;180.77;;;15.30;99.90;;;;;;5068791;28;20571;-52
2023/10/24 11:20:13;;;;;;;420.20;175.63;;;15.30;99.90;;;;;;5072951;28;20215;-52
2023/10/24 11:22:39;;;;;;;430.30;183.60;;;;;;;;;;5065315;28;20712;-52
2023/10/24 11:25:12;;;;;;;668.43;336.23;;;15.30;99.90;;;;;;5049227;28;21051;-52
2023/10/24 11:27:43;;;;;;;505.80;227.47;;;15.00;99.90;;;;;;5029936;28;20210;-52
2023/10/24 11:30:09;;;;;;;589.50;288.80;;;;;;;;;;5022186;28;20293;-53
2023/10/24 11:32:35;;;;;;;514.60;236.07;;;;;;;;;;5053592;28;20186;-53
2023/10/24 11:35:04;;;;;;;483.27;214.63;;;14.80;99.90;;;;;;5039778;28;20287;-53
2023/10/24 11:37:30;;;;;;;467.87;200.00;;;;;;;;;;5039403;28;20221;-53
2023/10/24 11:39:59;;;;;;;503.37;224.07;;;;;;;;;;5043485;28;20229;-53
2023/10/24 11:42:25;;;;;;;508.40;232.90;;;;;;;;;;5044062;28;20300;-53
2023/10/24 11:44:51;;;;;;;633.10;316.40;;;14.40;99.90;;;;;;5027108;28;24121;-53
2023/10/24 11:47:17;;;;;;;515.80;235.23;;;;;;;;;;5024466;28;21028;-53
2023/10/24 11:49:46;;;;;;;555.60;256.77;;;;;;;;;;5045030;28;20589;-53
2023/10/24 11:52:12;;;;;;;489.93;217.77;;;;;;;;;;5036255;28;20279;-52
2023/10/24 11:54:39;;;;;;;580.37;277.07;;;14.40;99.90;;;;;;5027877;28;20234;-53
2023/10/24 11:57:05;;;;;;;492.20;218.40;;;;;;;;;;5052335;28;20647;-53
2023/10/24 11:59:32;;;;;;;477.00;208.63;;;;;;;;;;5048930;28;20692;-53
2023/10/24 12:01:58;;;;;;;484.57;214.93;;;;;;;;;;5047352;28;20736;-53
2023/10/24 12:04:25;;;;;;;526.60;235.83;;;14.30;99.90;;;;;;5050098;28;20251;-53
2023/10/24 12:07:00;;;;;;;528.30;238.93;;;;;;;;;;5056677;28;21220;-53
2023/10/24 12:09:26;;;;;;;483.47;210.73;;;;;;;;;;5050504;28;20240;-53
2023/10/24 12:11:52;;;;;;;496.97;218.13;;;;;;;;;;5027613;28;21760;-53
2023/10/24 12:14:18;;;;;;;541.30;243.47;;;;;;;;;;5020041;28;20222;-53
2023/10/24 12:16:46;;;;;;;522.50;242.53;;;14.10;99.90;;;;;;5014799;28;20210;-53
2023/10/24 12:19:12;;;;;;;456.23;199.03;;;;;;;;;;5032266;28;20229;-53
2023/10/24 12:21:38;;;;;;;539.50;243.03;;;;;;;;;;5031159;28;20522;-53
2023/10/24 12:24:04;;;;;;;530.63;243.40;;;13.90;99.90;;;;;;5034734;28;20502;-53
2023/10/24 12:26:30;;;;;;;480.23;210.80;;;;;;;;;;5051201;28;20178;-53
2023/10/24 12:28:56;;;;;;;486.50;211.87;;;;;;;;;;5029234;28;20617;-53
2023/10/24 12:31:22;;;;;;;543.50;240.07;;;13.80;99.90;;;;;;5017170;28;20222;-53
2023/10/24 12:33:48;;;;;;;540.60;252.70;;;;;;;;;;5033966;28;20712;-53
2023/10/24 12:36:15;;;;;;;601.00;291.83;;;14.00;99.90;;;;;;5022347;28;30243;-53
2023/10/24 12:38:41;;;;;;;527.00;241.60;;;;;;;;;;5030555;28;20194;-53
2023/10/24 12:41:07;;;;;;;498.63;223.97;;;;;;;;;;5030500;28;20214;-53
2023/10/24 12:43:33;;;;;;;501.47;222.30;;;;;;;;;;5026191;28;20587;-53
2023/10/24 12:45:59;;;;;;;477.13;207.10;;;;;;;;;;5016890;28;20606;-54
2023/10/24 12:48:25;;;;;;;520.67;241.83;;;13.90;99.90;;;;;;5026725;28;20300;-53
2023/10/24 12:50:51;;;;;;;600.73;287.97;;;;;;;;;;5008960;28;20210;-53
2023/10/24 12:53:17;;;;;;;517.50;233.50;;;;;;;;;;5030808;28;20220;-52
2023/10/24 12:55:43;;;;;;;545.03;257.83;;;;;;;;;;5035926;28;20342;-53
2023/10/24 12:58:09;;;;;;;538.03;252.53;;;;;;;;;;5016092;28;20219;-53
2023/10/24 13:00:35;;;;;;;548.57;249.03;;;;;;;;;;5029060;28;20235;-53
2023/10/24 13:03:01;;;;;;;477.83;208.03;;;;;;;;;;5043716;28;20600;-53
2023/10/24 13:05:28;;;;;;;479.10;201.83;;;;;;;;;;5046393;28;20183;-53
2023/10/24 13:07:57;;;;;;;535.87;246.97;;;;;;;;;;5039460;28;20218;-53
2023/10/24 13:10:23;;;;;;;480.57;207.93;;;;;;;;;;5042045;28;20219;-53
2023/10/24 13:12:49;;;;;;;499.03;224.30;;;;;;;;;;5027983;28;20210;-53
2023/10/24 13:15:15;;;;;;;568.13;264.90;;;;;;;;;;5025822;28;20210;-53
2023/10/24 13:17:41;;;;;;;536.00;241.57;;;;;;;;;;5030105;28;20312;-53
2023/10/24 13:20:07;;;;;;;501.07;222.23;;;;;;;;;;5030899;28;20314;-53
2023/10/24 13:22:33;;;;;;;517.30;232.37;;;;;;;;;;5029914;28;20215;-53
2023/10/24 13:24:59;;;;;;;527.83;238.90;;;;;;;;;;5028313;28;20321;-53
2023/10/24 13:27:25;;;;;;;509.53;259.70;;;;;;;;;;5030770;28;20223;-53
2023/10/24 13:29:51;;;;;;;534.93;253.20;;;;;;;;;;5063560;28;20199;-53
2023/10/24 13:32:17;;;;;;;469.77;204.97;;;13.70;99.90;;;;;;5061517;28;20222;-53
2023/10/24 13:34:43;;;;;;;490.37;218.77;;;;;;;;;;5065968;28;20210;-53
2023/10/24 13:37:09;;;;;;;498.73;224.23;;;;;;;;;;5055130;28;20214;-53
2023/10/24 13:39:35;;;;;;;544.87;251.40;;;;;;;;;;5046280;28;20295;-53